sensor_id;sensor_type;location;lat;lon;timestamp;P1;durP1;ratioP1;P2;durP2;ratioP2
59681;SDS011;45548;39.530;-9.118;2022-09-13T08:10:23;1323.78;;;132.48;;
59681;SDS011;45548;39.530;-9.118;2022-09-13T08:38:59;861.03;;;67.80;;
59681;SDS011;45548;39.530;-9.118;2022-09-13T08:42:05;1293.32;;;161.25;;
59681;SDS011;45548;39.530;-9.118;2022-09-13T08:44:39;1574.13;;;168.43;;
59681;SDS011;45548;39.530;-9.118;2022-09-13T08:49:35;897.42;;;94.20;;
59681;SDS011;45548;39.530;-9.118;2022-09-13T08:54:47;749.50;;;55.85;;
59681;SDS011;45548;39.530;-9.118;2022-09-13T08:59:57;198.32;;;16.73;;
59681;SDS011;45548;39.530;-9.118;2022-09-13T09:02:42;1333.80;;;114.40;;
59681;SDS011;45548;39.530;-9.118;2022-09-13T09:05:19;1471.47;;;175.88;;
59681;SDS011;45548;39.530;-9.118;2022-09-13T09:07:50;49.53;;;4.63;;
59681;SDS011;45548;39.530;-9.118;2022-09-13T09:17:47;1368.75;;;162.35;;
59681;SDS011;45548;39.530;-9.118;2022-09-13T09:21:05;185.27;;;14.95;;
59681;SDS011;45548;39.530;-9.118;2022-09-13T09:24:42;1185.25;;;116.45;;
59681;SDS011;45548;39.530;-9.118;2022-09-13T09:28:10;1886.85;;;194.13;;
59681;SDS011;45548;39.530;-9.118;2022-09-13T09:31:50;153.38;;;13.15;;
59681;SDS011;45548;39.530;-9.118;2022-09-13T09:38:48;1999.90;;;312.95;;
59681;SDS011;45548;39.530;-9.118;2022-09-13T09:42:37;131.85;;;8.70;;
59681;SDS011;45548;39.530;-9.118;2022-09-13T09:46:06;325.85;;;26.27;;
59681;SDS011;45548;39.530;-9.118;2022-09-13T09:49:42;928.72;;;78.95;;
59681;SDS011;45548;39.530;-9.118;2022-09-13T09:53:20;1738.85;;;203.50;;
59681;SDS011;45548;39.530;-9.118;2022-09-13T09:56:54;752.60;;;68.05;;
59681;SDS011;45548;39.530;-9.118;2022-09-13T10:00:28;1705.95;;;155.10;;
59681;SDS011;45548;39.530;-9.118;2022-09-13T10:04:05;959.40;;;95.78;;
59681;SDS011;45548;39.530;-9.118;2022-09-13T10:07:32;18.40;;;4.57;;
59681;SDS011;45548;39.530;-9.118;2022-09-13T10:11:01;289.83;;;23.02;;
59681;SDS011;45548;39.530;-9.118;2022-09-13T10:14:40;1111.18;;;115.57;;
59681;SDS011;45548;39.530;-9.118;2022-09-13T10:18:19;1665.82;;;197.43;;
59681;SDS011;45548;39.530;-9.118;2022-09-13T10:21:58;584.95;;;46.10;;
59681;SDS011;45548;39.530;-9.118;2022-09-13T10:25:54;1431.13;;;126.05;;
59681;SDS011;45548;39.530;-9.118;2022-09-13T10:29:19;93.80;;;10.20;;
59681;SDS011;45548;39.530;-9.118;2022-09-13T10:32:57;789.80;;;71.28;;
59681;SDS011;45548;39.530;-9.118;2022-09-13T10:36:25;197.68;;;18.20;;
59681;SDS011;45548;39.530;-9.118;2022-09-13T10:43:19;841.50;;;75.70;;
59681;SDS011;45548;39.530;-9.118;2022-09-13T10:47:06;562.63;;;58.47;;
59681;SDS011;45548;39.530;-9.118;2022-09-13T10:50:33;1826.93;;;188.88;;
59681;SDS011;45548;39.530;-9.118;2022-09-13T10:54:06;934.72;;;93.93;;
59681;SDS011;45548;39.530;-9.118;2022-09-13T10:58:28;1734.82;;;228.18;;
59681;SDS011;45548;39.530;-9.118;2022-09-13T11:13:17;1568.88;;;143.18;;
59681;SDS011;45548;39.530;-9.118;2022-09-13T11:17:01;995.85;;;82.13;;
59681;SDS011;45548;39.530;-9.118;2022-09-13T11:42:35;1298.65;;;124.95;;
59681;SDS011;45548;39.530;-9.118;2022-09-13T11:50:12;1663.70;;;172.05;;
59681;SDS011;45548;39.530;-9.118;2022-09-13T11:57:47;1999.90;;;391.58;;
59681;SDS011;45548;39.530;-9.118;2022-09-13T12:01:22;1999.90;;;445.30;;
59681;SDS011;45548;39.530;-9.118;2022-09-13T12:05:15;1999.90;;;398.95;;
59681;SDS011;45548;39.530;-9.118;2022-09-13T12:12:40;1999.90;;;361.13;;
59681;SDS011;45548;39.530;-9.118;2022-09-13T12:16:08;1628.88;;;153.63;;
59681;SDS011;45548;39.530;-9.118;2022-09-13T12:19:45;1999.90;;;258.80;;
59681;SDS011;45548;39.530;-9.118;2022-09-13T12:23:22;1999.90;;;363.60;;
59681;SDS011;45548;39.530;-9.118;2022-09-13T12:30:41;1999.90;;;402.17;;
59681;SDS011;45548;39.530;-9.118;2022-09-13T12:34:09;1999.90;;;294.38;;
59681;SDS011;45548;39.530;-9.118;2022-09-13T12:37:57;1996.28;;;238.85;;
59681;SDS011;45548;39.530;-9.118;2022-09-13T13:04:26;1999.90;;;417.58;;
59681;SDS011;45548;39.530;-9.118;2022-09-13T13:07:56;1999.90;;;432.83;;
59681;SDS011;45548;39.530;-9.118;2022-09-13T13:11:23;1999.90;;;373.92;;
59681;SDS011;45548;39.530;-9.118;2022-09-13T13:14:57;1999.90;;;387.23;;
59681;SDS011;45548;39.530;-9.118;2022-09-13T13:18:26;1999.90;;;378.67;;
59681;SDS011;45548;39.530;-9.118;2022-09-13T13:22:13;1999.90;;;445.98;;
59681;SDS011;45548;39.530;-9.118;2022-09-13T13:25:54;1999.90;;;296.20;;
59681;SDS011;45548;39.530;-9.118;2022-09-13T13:29:20;1999.90;;;452.95;;
59681;SDS011;45548;39.530;-9.118;2022-09-13T13:33:14;1999.90;;;390.92;;
59681;SDS011;45548;39.530;-9.118;2022-09-13T13:40:10;1999.90;;;492.27;;
59681;SDS011;45548;39.530;-9.118;2022-09-13T13:43:53;1999.90;;;438.52;;
59681;SDS011;45548;39.530;-9.118;2022-09-13T13:58:24;1999.90;;;439.75;;
59681;SDS011;45548;39.530;-9.118;2022-09-13T14:01:56;1999.90;;;341.80;;
59681;SDS011;45548;39.530;-9.118;2022-09-13T14:13:43;1999.90;;;297.85;;
59681;SDS011;45548;39.530;-9.118;2022-09-13T14:21:23;1999.90;;;432.75;;
59681;SDS011;45548;39.530;-9.118;2022-09-13T14:23:49;1999.90;;;453.38;;
59681;SDS011;45548;39.530;-9.118;2022-09-13T14:26:15;1999.90;;;292.50;;
59681;SDS011;45548;39.530;-9.118;2022-09-13T14:28:40;1999.90;;;421.20;;
59681;SDS011;45548;39.530;-9.118;2022-09-13T14:31:06;1999.90;;;293.88;;
59681;SDS011;45548;39.530;-9.118;2022-09-13T14:33:32;1570.18;;;148.48;;
59681;SDS011;45548;39.530;-9.118;2022-09-13T14:36:17;1887.30;;;234.48;;
59681;SDS011;45548;39.530;-9.118;2022-09-13T14:39:00;1999.90;;;439.38;;
59681;SDS011;45548;39.530;-9.118;2022-09-13T14:41:31;1999.90;;;443.90;;
59681;SDS011;45548;39.530;-9.118;2022-09-13T14:44:13;1999.90;;;399.83;;
59681;SDS011;45548;39.530;-9.118;2022-09-13T14:46:39;1999.90;;;256.38;;
59681;SDS011;45548;39.530;-9.118;2022-09-13T14:49:07;1999.90;;;438.70;;
59681;SDS011;45548;39.530;-9.118;2022-09-13T14:51:41;1999.90;;;241.63;;
59681;SDS011;45548;39.530;-9.118;2022-09-13T14:56:53;1999.90;;;590.92;;
59681;SDS011;45548;39.530;-9.118;2022-09-13T14:59:33;1999.90;;;344.85;;
59681;SDS011;45548;39.530;-9.118;2022-09-13T15:04:45;1999.90;;;357.20;;
59681;SDS011;45548;39.530;-9.118;2022-09-13T15:07:19;1999.90;;;387.45;;
59681;SDS011;45548;39.530;-9.118;2022-09-13T15:09:46;1999.90;;;482.10;;
59681;SDS011;45548;39.530;-9.118;2022-09-13T15:12:24;1999.90;;;419.10;;
59681;SDS011;45548;39.530;-9.118;2022-09-13T15:15:12;1999.90;;;397.38;;
59681;SDS011;45548;39.530;-9.118;2022-09-13T15:17:51;1999.90;;;307.98;;
59681;SDS011;45548;39.530;-9.118;2022-09-13T15:20:18;1999.90;;;406.35;;
59681;SDS011;45548;39.530;-9.118;2022-09-13T15:22:43;1999.90;;;445.63;;
59681;SDS011;45548;39.530;-9.118;2022-09-13T15:25:19;1999.90;;;446.58;;
59681;SDS011;45548;39.530;-9.118;2022-09-13T15:27:46;1999.90;;;410.75;;
59681;SDS011;45548;39.530;-9.118;2022-09-13T15:30:25;1999.90;;;401.30;;
59681;SDS011;45548;39.530;-9.118;2022-09-13T15:35:30;1999.90;;;412.65;;
59681;SDS011;45548;39.530;-9.118;2022-09-13T15:37:59;1999.90;;;372.23;;
59681;SDS011;45548;39.530;-9.118;2022-09-13T15:40:25;1999.90;;;282.10;;
59681;SDS011;45548;39.530;-9.118;2022-09-13T15:42:52;1999.90;;;436.17;;
59681;SDS011;45548;39.530;-9.118;2022-09-13T15:45:18;1999.90;;;461.58;;
59681;SDS011;45548;39.530;-9.118;2022-09-13T15:47:45;1999.90;;;471.10;;
59681;SDS011;45548;39.530;-9.118;2022-09-13T15:50:24;1999.90;;;433.77;;
59681;SDS011;45548;39.530;-9.118;2022-09-13T15:52:51;1909.80;;;226.52;;
59681;SDS011;45548;39.530;-9.118;2022-09-13T15:55:16;1999.90;;;503.85;;
59681;SDS011;45548;39.530;-9.118;2022-09-13T15:57:42;1999.90;;;419.63;;
59681;SDS011;45548;39.530;-9.118;2022-09-13T16:00:09;1999.90;;;503.25;;
59681;SDS011;45548;39.530;-9.118;2022-09-13T16:02:38;1999.90;;;370.25;;
59681;SDS011;45548;39.530;-9.118;2022-09-13T16:05:03;1999.90;;;373.70;;
59681;SDS011;45548;39.530;-9.118;2022-09-13T16:07:29;1999.90;;;272.27;;
59681;SDS011;45548;39.530;-9.118;2022-09-13T16:09:54;1999.90;;;339.90;;
59681;SDS011;45548;39.530;-9.118;2022-09-13T16:12:20;1999.90;;;281.48;;
59681;SDS011;45548;39.530;-9.118;2022-09-13T16:14:48;1999.90;;;380.45;;
59681;SDS011;45548;39.530;-9.118;2022-09-13T16:19:42;1803.35;;;178.68;;
59681;SDS011;45548;39.530;-9.118;2022-09-13T16:22:07;1999.90;;;349.25;;
59681;SDS011;45548;39.530;-9.118;2022-09-13T16:24:32;1999.90;;;366.23;;
59681;SDS011;45548;39.530;-9.118;2022-09-13T16:26:58;1999.90;;;280.92;;
59681;SDS011;45548;39.530;-9.118;2022-09-13T16:29:24;1999.90;;;289.77;;
59681;SDS011;45548;39.530;-9.118;2022-09-13T16:31:49;1999.90;;;293.02;;
59681;SDS011;45548;39.530;-9.118;2022-09-13T16:34:15;1999.90;;;305.65;;
59681;SDS011;45548;39.530;-9.118;2022-09-13T16:36:40;1840.72;;;210.82;;
59681;SDS011;45548;39.530;-9.118;2022-09-13T16:39:06;1999.90;;;332.88;;
59681;SDS011;45548;39.530;-9.118;2022-09-13T16:41:31;1224.97;;;122.75;;
59681;SDS011;45548;39.530;-9.118;2022-09-13T16:43:56;1972.65;;;233.48;;
59681;SDS011;45548;39.530;-9.118;2022-09-13T16:46:21;1999.90;;;315.63;;
59681;SDS011;45548;39.530;-9.118;2022-09-13T16:48:53;1999.90;;;387.35;;
59681;SDS011;45548;39.530;-9.118;2022-09-13T16:51:19;1872.22;;;188.38;;
59681;SDS011;45548;39.530;-9.118;2022-09-13T16:53:44;1999.90;;;412.75;;
59681;SDS011;45548;39.530;-9.118;2022-09-13T16:58:36;1999.90;;;291.35;;
59681;SDS011;45548;39.530;-9.118;2022-09-13T17:01:04;1999.90;;;333.48;;
59681;SDS011;45548;39.530;-9.118;2022-09-13T17:03:30;1999.90;;;337.38;;
59681;SDS011;45548;39.530;-9.118;2022-09-13T17:05:59;1999.90;;;238.85;;
59681;SDS011;45548;39.530;-9.118;2022-09-13T17:08:25;1970.82;;;233.00;;
59681;SDS011;45548;39.530;-9.118;2022-09-13T17:10:50;1999.90;;;357.73;;
59681;SDS011;45548;39.530;-9.118;2022-09-13T17:13:16;1999.90;;;420.42;;
59681;SDS011;45548;39.530;-9.118;2022-09-13T17:15:41;1999.90;;;316.98;;
59681;SDS011;45548;39.530;-9.118;2022-09-13T17:18:07;1597.90;;;168.85;;
59681;SDS011;45548;39.530;-9.118;2022-09-13T17:20:33;1999.90;;;239.55;;
59681;SDS011;45548;39.530;-9.118;2022-09-13T17:22:58;1999.90;;;384.98;;
59681;SDS011;45548;39.530;-9.118;2022-09-13T17:25:24;1999.90;;;372.08;;
59681;SDS011;45548;39.530;-9.118;2022-09-13T17:27:50;1699.78;;;195.55;;
59681;SDS011;45548;39.530;-9.118;2022-09-13T17:30:15;1585.47;;;155.05;;
59681;SDS011;45548;39.530;-9.118;2022-09-13T17:32:41;1999.90;;;307.25;;
59681;SDS011;45548;39.530;-9.118;2022-09-13T17:35:06;1999.90;;;418.98;;
59681;SDS011;45548;39.530;-9.118;2022-09-13T17:37:32;1999.90;;;389.40;;
59681;SDS011;45548;39.530;-9.118;2022-09-13T17:39:57;1833.47;;;197.27;;
59681;SDS011;45548;39.530;-9.118;2022-09-13T17:42:23;1999.90;;;397.77;;
59681;SDS011;45548;39.530;-9.118;2022-09-13T17:44:48;1999.90;;;330.25;;
59681;SDS011;45548;39.530;-9.118;2022-09-13T17:47:13;1999.90;;;364.98;;
59681;SDS011;45548;39.530;-9.118;2022-09-13T17:49:39;1999.90;;;367.67;;
59681;SDS011;45548;39.530;-9.118;2022-09-13T17:52:04;1999.90;;;303.83;;
59681;SDS011;45548;39.530;-9.118;2022-09-13T17:54:32;1999.90;;;439.52;;
59681;SDS011;45548;39.530;-9.118;2022-09-13T17:56:57;1999.90;;;291.50;;
59681;SDS011;45548;39.530;-9.118;2022-09-13T17:59:22;1999.90;;;410.92;;
59681;SDS011;45548;39.530;-9.118;2022-09-13T18:01:49;1999.90;;;357.77;;
59681;SDS011;45548;39.530;-9.118;2022-09-13T18:04:16;1999.90;;;462.17;;
59681;SDS011;45548;39.530;-9.118;2022-09-13T18:06:41;1999.90;;;370.05;;
59681;SDS011;45548;39.530;-9.118;2022-09-13T18:09:10;1999.90;;;398.67;;
59681;SDS011;45548;39.530;-9.118;2022-09-13T18:11:36;1999.90;;;395.15;;
59681;SDS011;45548;39.530;-9.118;2022-09-13T18:14:02;1999.90;;;301.17;;
59681;SDS011;45548;39.530;-9.118;2022-09-13T18:16:27;1999.90;;;275.10;;
59681;SDS011;45548;39.530;-9.118;2022-09-13T18:18:54;1708.47;;;183.73;;
59681;SDS011;45548;39.530;-9.118;2022-09-13T18:21:21;1999.90;;;321.73;;
59681;SDS011;45548;39.530;-9.118;2022-09-13T18:23:47;1999.90;;;364.15;;
59681;SDS011;45548;39.530;-9.118;2022-09-13T18:26:14;1999.90;;;346.48;;
59681;SDS011;45548;39.530;-9.118;2022-09-13T18:28:39;1999.90;;;443.63;;
59681;SDS011;45548;39.530;-9.118;2022-09-13T18:31:07;873.22;;;99.00;;
59681;SDS011;45548;39.530;-9.118;2022-09-13T18:33:35;1999.90;;;301.75;;
59681;SDS011;45548;39.530;-9.118;2022-09-13T18:36:02;1999.90;;;296.58;;
59681;SDS011;45548;39.530;-9.118;2022-09-13T18:38:30;1980.32;;;284.75;;
59681;SDS011;45548;39.530;-9.118;2022-09-13T18:41:16;1999.90;;;301.25;;
59681;SDS011;45548;39.530;-9.118;2022-09-13T18:43:42;1334.70;;;148.07;;
59681;SDS011;45548;39.530;-9.118;2022-09-13T18:46:12;1999.90;;;375.77;;
59681;SDS011;45548;39.530;-9.118;2022-09-13T18:48:38;1999.90;;;286.83;;
59681;SDS011;45548;39.530;-9.118;2022-09-13T18:51:04;1999.90;;;254.90;;
59681;SDS011;45548;39.530;-9.118;2022-09-13T18:53:29;1999.90;;;279.42;;
59681;SDS011;45548;39.530;-9.118;2022-09-13T18:55:59;1999.90;;;478.15;;
59681;SDS011;45548;39.530;-9.118;2022-09-13T18:58:24;1999.90;;;279.30;;
59681;SDS011;45548;39.530;-9.118;2022-09-13T19:01:06;1270.68;;;130.57;;
59681;SDS011;45548;39.530;-9.118;2022-09-13T19:03:32;1999.90;;;299.60;;
59681;SDS011;45548;39.530;-9.118;2022-09-13T19:08:33;1630.72;;;155.48;;
59681;SDS011;45548;39.530;-9.118;2022-09-13T19:10:58;1849.00;;;183.18;;
59681;SDS011;45548;39.530;-9.118;2022-09-13T19:13:24;1999.90;;;288.85;;
59681;SDS011;45548;39.530;-9.118;2022-09-13T19:15:49;1996.38;;;246.70;;
59681;SDS011;45548;39.530;-9.118;2022-09-13T19:18:14;1160.05;;;119.15;;
59681;SDS011;45548;39.530;-9.118;2022-09-13T19:20:40;1994.82;;;201.63;;
59681;SDS011;45548;39.530;-9.118;2022-09-13T19:23:05;1999.90;;;337.35;;
59681;SDS011;45548;39.530;-9.118;2022-09-13T19:25:32;856.25;;;89.07;;
59681;SDS011;45548;39.530;-9.118;2022-09-13T19:27:58;1999.90;;;370.77;;
59681;SDS011;45548;39.530;-9.118;2022-09-13T19:30:23;436.52;;;40.08;;
59681;SDS011;45548;39.530;-9.118;2022-09-13T19:32:49;1777.07;;;185.40;;
59681;SDS011;45548;39.530;-9.118;2022-09-13T19:35:14;1712.40;;;170.00;;
59681;SDS011;45548;39.530;-9.118;2022-09-13T19:37:39;751.72;;;76.50;;
59681;SDS011;45548;39.530;-9.118;2022-09-13T19:40:05;1503.07;;;177.18;;
59681;SDS011;45548;39.530;-9.118;2022-09-13T19:42:30;1999.90;;;280.00;;
59681;SDS011;45548;39.530;-9.118;2022-09-13T19:44:56;1999.90;;;314.90;;
59681;SDS011;45548;39.530;-9.118;2022-09-13T19:47:21;1681.55;;;175.40;;
59681;SDS011;45548;39.530;-9.118;2022-09-13T19:49:48;862.50;;;92.05;;
59681;SDS011;45548;39.530;-9.118;2022-09-13T19:52:14;1166.70;;;111.05;;
59681;SDS011;45548;39.530;-9.118;2022-09-13T19:54:39;1999.90;;;233.48;;
59681;SDS011;45548;39.530;-9.118;2022-09-13T19:57:05;737.30;;;81.78;;
59681;SDS011;45548;39.530;-9.118;2022-09-13T19:59:31;295.10;;;26.35;;
59681;SDS011;45548;39.530;-9.118;2022-09-13T20:01:58;1121.68;;;104.45;;
59681;SDS011;45548;39.530;-9.118;2022-09-13T20:04:23;1285.55;;;142.75;;
59681;SDS011;45548;39.530;-9.118;2022-09-13T20:06:49;378.20;;;33.60;;
59681;SDS011;45548;39.530;-9.118;2022-09-13T20:09:15;678.47;;;61.97;;
59681;SDS011;45548;39.530;-9.118;2022-09-13T20:11:41;916.33;;;116.20;;
59681;SDS011;45548;39.530;-9.118;2022-09-13T20:14:12;105.95;;;12.35;;
59681;SDS011;45548;39.530;-9.118;2022-09-13T20:16:38;178.20;;;17.90;;
59681;SDS011;45548;39.530;-9.118;2022-09-13T20:19:04;969.92;;;91.25;;
59681;SDS011;45548;39.530;-9.118;2022-09-13T20:21:30;1999.90;;;274.15;;
59681;SDS011;45548;39.530;-9.118;2022-09-13T20:23:56;1999.90;;;344.77;;
59681;SDS011;45548;39.530;-9.118;2022-09-13T20:26:23;1363.97;;;145.25;;
59681;SDS011;45548;39.530;-9.118;2022-09-13T20:28:52;1769.78;;;211.00;;
59681;SDS011;45548;39.530;-9.118;2022-09-13T20:31:20;1999.90;;;339.27;;
59681;SDS011;45548;39.530;-9.118;2022-09-13T20:33:46;1999.90;;;345.20;;
59681;SDS011;45548;39.530;-9.118;2022-09-13T20:36:12;1999.90;;;256.25;;
59681;SDS011;45548;39.530;-9.118;2022-09-13T20:38:39;1189.00;;;117.47;;
59681;SDS011;45548;39.530;-9.118;2022-09-13T20:41:05;336.60;;;35.33;;
59681;SDS011;45548;39.530;-9.118;2022-09-13T20:43:32;1124.05;;;104.80;;
59681;SDS011;45548;39.530;-9.118;2022-09-13T20:45:57;986.03;;;93.10;;
59681;SDS011;45548;39.530;-9.118;2022-09-13T20:48:23;97.45;;;11.63;;
59681;SDS011;45548;39.530;-9.118;2022-09-13T20:50:58;1314.57;;;122.80;;
59681;SDS011;45548;39.530;-9.118;2022-09-13T20:53:24;634.00;;;58.45;;
59681;SDS011;45548;39.530;-9.118;2022-09-13T20:55:49;577.67;;;49.67;;
59681;SDS011;45548;39.530;-9.118;2022-09-13T20:58:15;957.78;;;93.95;;
59681;SDS011;45548;39.530;-9.118;2022-09-13T21:00:40;720.22;;;65.95;;
59681;SDS011;45548;39.530;-9.118;2022-09-13T21:03:06;22.55;;;5.20;;
59681;SDS011;45548;39.530;-9.118;2022-09-13T21:05:34;375.70;;;39.60;;
59681;SDS011;45548;39.530;-9.118;2022-09-13T21:08:00;990.75;;;139.20;;
59681;SDS011;45548;39.530;-9.118;2022-09-13T21:10:53;1872.68;;;217.32;;
59681;SDS011;45548;39.530;-9.118;2022-09-13T21:13:19;1116.88;;;147.55;;
59681;SDS011;45548;39.530;-9.118;2022-09-13T21:15:44;351.52;;;31.08;;
59681;SDS011;45548;39.530;-9.118;2022-09-13T21:18:10;1314.90;;;131.48;;
59681;SDS011;45548;39.530;-9.118;2022-09-13T21:20:35;1999.90;;;463.25;;
59681;SDS011;45548;39.530;-9.118;2022-09-13T21:23:00;1999.90;;;444.85;;
59681;SDS011;45548;39.530;-9.118;2022-09-13T21:25:26;1999.90;;;343.00;;
59681;SDS011;45548;39.530;-9.118;2022-09-13T21:27:52;1441.38;;;183.02;;
59681;SDS011;45548;39.530;-9.118;2022-09-13T21:30:17;1144.75;;;120.07;;
59681;SDS011;45548;39.530;-9.118;2022-09-13T21:32:42;1999.90;;;289.67;;
59681;SDS011;45548;39.530;-9.118;2022-09-13T21:35:08;1999.90;;;312.13;;
59681;SDS011;45548;39.530;-9.118;2022-09-13T21:37:33;1999.90;;;271.83;;
59681;SDS011;45548;39.530;-9.118;2022-09-13T21:39:58;1122.85;;;118.53;;
59681;SDS011;45548;39.530;-9.118;2022-09-13T21:42:24;1171.05;;;130.27;;
59681;SDS011;45548;39.530;-9.118;2022-09-13T21:44:49;1999.90;;;377.35;;
